createdAt,value
2022-08-25T00:02:12.369Z,62.05
2022-08-25T00:05:10.023Z,61.33
2022-08-25T00:08:07.762Z,61.40
2022-08-25T00:11:06.990Z,62.38
2022-08-25T00:14:07.299Z,61.10
2022-08-25T00:17:04.985Z,61.10
2022-08-25T00:20:02.665Z,61.05
2022-08-25T00:23:00.746Z,61.63
2022-08-25T00:25:58.654Z,61.23
2022-08-25T00:29:01.065Z,61.79
2022-08-25T00:31:59.509Z,61.96
2022-08-25T00:34:57.659Z,61.09
2022-08-25T00:37:55.671Z,61.96
2022-08-25T00:41:08.776Z,62.42
2022-08-25T00:44:07.777Z,60.01
2022-08-25T00:47:06.419Z,61.52
2022-08-25T00:50:05.151Z,60.95
2022-08-25T00:53:04.175Z,62.65
2022-08-25T00:56:01.556Z,62.02
2022-08-25T00:58:59.253Z,62.84
2022-08-25T01:01:57.170Z,62.32
2022-08-25T01:04:54.561Z,64.09
2022-08-25T01:07:52.804Z,65.64
2022-08-25T01:10:57.054Z,67.43
2022-08-25T01:13:55.625Z,68.96
2022-08-25T01:16:53.895Z,69.14
2022-08-25T01:19:51.251Z,69.61
2022-08-25T01:22:54.964Z,69.40
2022-08-25T01:26:01.449Z,70.10
2022-08-25T01:29:18.028Z,71.69
2022-08-25T01:32:15.510Z,71.98
2022-08-25T01:35:14.283Z,73.63
2022-08-25T01:38:11.807Z,72.85
2022-08-25T01:41:09.516Z,73.10
2022-08-25T01:44:06.760Z,72.88
2022-08-25T01:47:08.624Z,72.00
2022-08-25T01:50:06.329Z,72.43
2022-08-25T01:53:24.057Z,70.72
2022-08-25T01:56:21.792Z,72.19
2022-08-25T01:59:23.912Z,71.51
2022-08-25T02:02:22.166Z,71.33
2022-08-25T02:05:23.360Z,71.47
2022-08-25T02:08:23.341Z,71.65
2022-08-25T02:11:22.091Z,71.47
2022-08-25T02:14:20.062Z,71.32
2022-08-25T02:17:17.656Z,71.23
2022-08-25T02:20:14.663Z,70.75
2022-08-25T02:23:12.890Z,69.91
2022-08-25T02:26:10.879Z,70.38
2022-08-25T02:29:09.012Z,71.00
2022-08-25T02:32:06.600Z,71.58
2022-08-25T02:35:04.504Z,71.52
2022-08-25T02:38:01.663Z,71.17
2022-08-25T02:40:59.962Z,71.17
2022-08-25T02:43:58.005Z,71.09
2022-08-25T02:46:55.345Z,70.86
2022-08-25T02:49:53.019Z,71.54
2022-08-25T02:52:51.922Z,70.86
2022-08-25T02:55:49.436Z,70.04
2022-08-25T02:58:46.854Z,70.14
2022-08-25T03:01:44.820Z,70.98
2022-08-25T03:04:43.464Z,72.14
2022-08-25T03:07:40.771Z,72.12
2022-08-25T03:10:38.512Z,72.20
2022-08-25T03:13:35.857Z,72.62
2022-08-25T03:16:33.892Z,71.70
2022-08-25T03:19:31.604Z,73.32
2022-08-25T03:22:28.478Z,72.78
2022-08-25T03:25:44.480Z,72.89
2022-08-25T03:28:41.950Z,72.80
2022-08-25T03:31:40.126Z,73.28
2022-08-25T03:34:37.713Z,71.60
2022-08-25T03:37:35.368Z,71.56
2022-08-25T03:40:33.035Z,71.49
2022-08-25T03:43:30.543Z,70.75
2022-08-25T03:46:30.121Z,70.77
2022-08-25T03:49:27.563Z,71.49
2022-08-25T03:52:27.715Z,70.89
2022-08-25T03:55:25.120Z,71.07
2022-08-25T03:58:22.791Z,70.93
2022-08-25T04:01:19.822Z,72.39
2022-08-25T04:04:16.579Z,72.59
2022-08-25T04:07:14.618Z,72.61
2022-08-25T04:10:12.496Z,72.96
2022-08-25T04:13:10.631Z,73.27
2022-08-25T04:16:20.089Z,72.91
2022-08-25T04:19:17.387Z,72.38
2022-08-25T04:22:14.211Z,72.67
2022-08-25T04:25:11.513Z,72.81
2022-08-25T04:28:09.902Z,72.63
2022-08-25T04:31:11.369Z,72.90
2022-08-25T04:34:28.442Z,73.84
2022-08-25T04:37:25.694Z,74.25
2022-08-25T04:40:23.899Z,75.07
2022-08-25T04:43:27.204Z,76.35
2022-08-25T04:46:27.156Z,76.53
2022-08-25T04:49:24.684Z,76.94
2022-08-25T04:52:21.710Z,76.92
2022-08-25T04:55:18.768Z,77.50
2022-08-25T04:58:16.653Z,76.98
2022-08-25T05:01:18.158Z,76.49
2022-08-25T05:04:28.442Z,75.86
2022-08-25T05:07:25.740Z,76.12
2022-08-25T05:10:22.404Z,75.80
2022-08-25T05:13:21.725Z,75.16
2022-08-25T05:16:19.256Z,74.96
2022-08-25T05:19:16.714Z,74.93
2022-08-25T05:22:13.781Z,75.22
2022-08-25T05:25:10.708Z,75.24
2022-08-25T05:28:07.663Z,74.66
2022-08-25T05:31:04.925Z,74.69
2022-08-25T05:34:07.776Z,75.96
2022-08-25T05:37:06.612Z,76.10
2022-08-25T05:40:07.445Z,75.60
2022-08-25T05:43:04.736Z,75.63
2022-08-25T05:46:01.802Z,75.93
2022-08-25T05:48:59.150Z,75.99
2022-08-25T05:51:56.776Z,76.25
2022-08-25T05:54:54.497Z,76.26
2022-08-25T05:57:51.373Z,76.63
2022-08-25T06:00:49.337Z,76.34
2022-08-25T06:03:47.783Z,76.97
2022-08-25T06:06:44.476Z,77.31
2022-08-25T06:09:41.532Z,77.58
2022-08-25T06:12:39.124Z,77.17
2022-08-25T06:15:36.734Z,75.83
2022-08-25T06:18:33.635Z,75.58
2022-08-25T06:21:30.714Z,75.89
2022-08-25T06:24:28.320Z,75.84
2022-08-25T06:27:25.888Z,75.36
2022-08-25T06:30:24.544Z,74.96
2022-08-25T06:33:25.907Z,75.20
2022-08-25T06:36:22.705Z,74.89
2022-08-25T06:39:19.877Z,74.39
2022-08-25T06:42:17.004Z,74.11
2022-08-25T06:45:14.954Z,74.84
2022-08-25T06:48:11.549Z,72.32
2022-08-25T06:51:10.232Z,72.60
2022-08-25T06:54:14.206Z,74.74
2022-08-25T06:57:11.800Z,73.22
2022-08-25T07:00:11.338Z,70.99
2022-08-25T07:03:09.618Z,71.43
2022-08-25T07:06:07.839Z,71.43
2022-08-25T07:09:05.816Z,72.44
2022-08-25T07:12:04.841Z,71.89
2022-08-25T07:15:19.418Z,71.44
2022-08-25T07:18:17.721Z,69.59
2022-08-25T07:21:14.948Z,68.60
2022-08-25T07:24:12.984Z,68.78
2022-08-25T07:27:09.956Z,69.11
2022-08-25T07:30:09.968Z,70.06
2022-08-25T07:33:08.956Z,68.22
2022-08-25T07:36:06.925Z,67.69
2022-08-25T07:39:06.886Z,68.39
2022-08-25T07:42:04.895Z,67.98
2022-08-25T07:45:10.273Z,67.21
2022-08-25T07:48:09.448Z,70.17
2022-08-25T07:51:11.245Z,67.79
2022-08-25T07:54:08.724Z,67.62
2022-08-25T07:57:06.911Z,65.98
2022-08-25T08:00:06.000Z,67.40
2022-08-25T08:03:12.879Z,66.56
2022-08-25T08:06:18.208Z,66.89
2022-08-25T08:09:16.394Z,67.39
2022-08-25T08:12:13.935Z,64.83
2022-08-25T08:15:13.082Z,66.43
2022-08-25T08:18:10.946Z,65.10
2022-08-25T08:21:19.964Z,65.78
2022-08-25T08:24:40.790Z,63.23
2022-08-25T08:27:35.084Z,64.64
2022-08-25T08:30:33.110Z,64.03
2022-08-25T08:33:31.517Z,64.03
2022-08-25T08:36:32.772Z,64.79
2022-08-25T08:39:29.872Z,63.21
2022-08-25T08:42:32.859Z,63.70
2022-08-25T08:45:50.382Z,62.07
2022-08-25T08:49:01.535Z,65.10
2022-08-25T08:52:02.768Z,64.17
2022-08-25T08:55:01.855Z,62.07
2022-08-25T08:58:07.577Z,62.89
2022-08-25T09:01:04.827Z,61.28
2022-08-25T09:04:26.247Z,60.16
2022-08-25T09:07:50.484Z,61.16
2022-08-25T09:11:03.226Z,61.96
2022-08-25T09:14:22.929Z,63.01
2022-08-25T09:17:54.783Z,61.78
2022-08-25T09:21:00.938Z,61.85
2022-08-25T09:24:31.699Z,61.88
2022-08-25T09:27:52.511Z,60.63
2022-08-25T09:31:01.830Z,58.95
2022-08-25T09:34:00.308Z,58.51
2022-08-25T09:36:58.109Z,56.72
2022-08-25T09:39:55.214Z,57.91
2022-08-25T09:42:58.696Z,58.35
2022-08-25T09:46:13.722Z,57.91
2022-08-25T09:49:12.356Z,56.18
2022-08-25T09:52:32.053Z,57.09
2022-08-25T09:55:34.305Z,56.91
2022-08-25T09:58:33.686Z,58.90
2022-08-25T10:01:34.856Z,56.06
2022-08-25T10:04:38.738Z,57.43
2022-08-25T10:07:39.303Z,52.56
2022-08-25T10:10:47.371Z,52.59
2022-08-25T10:13:46.997Z,51.47
2022-08-25T10:16:47.025Z,52.66
2022-08-25T10:19:44.571Z,53.19
2022-08-25T10:22:42.411Z,52.10
2022-08-25T10:25:57.942Z,53.95
2022-08-25T10:29:37.387Z,51.37
2022-08-25T10:33:01.037Z,51.03
2022-08-25T10:36:05.026Z,50.34
2022-08-25T10:39:02.240Z,51.49
2022-08-25T10:42:29.741Z,51.03
2022-08-25T10:45:43.673Z,49.63
2022-08-25T10:48:47.877Z,48.95
2022-08-25T10:52:04.239Z,50.60
2022-08-25T10:55:15.472Z,50.21
2022-08-25T10:58:37.724Z,49.94
2022-08-25T11:01:53.863Z,50.60
2022-08-25T11:04:57.549Z,50.19
2022-08-25T11:08:12.667Z,49.68
2022-08-25T11:11:11.651Z,49.57
2022-08-25T11:14:44.989Z,50.69
2022-08-25T11:17:42.183Z,48.66
2022-08-25T11:20:54.292Z,48.79
2022-08-25T11:24:05.909Z,49.35
2022-08-25T11:27:05.275Z,51.33
2022-08-25T11:30:08.974Z,49.44
2022-08-25T11:33:06.282Z,48.93
2022-08-25T11:36:29.585Z,49.04
2022-08-25T11:39:49.035Z,48.86
2022-08-25T11:43:01.615Z,49.12
2022-08-25T11:46:10.506Z,47.72
2022-08-25T11:49:35.733Z,48.26
2022-08-25T11:52:32.860Z,48.79
2022-08-25T11:55:34.980Z,50.46
2022-08-25T11:58:43.966Z,47.86
2022-08-25T12:01:42.770Z,47.70
2022-08-25T12:04:45.197Z,48.27
2022-08-25T12:08:12.268Z,49.84
2022-08-25T12:11:11.896Z,47.68
2022-08-25T12:14:16.619Z,48.23
2022-08-25T12:17:22.037Z,48.94
2022-08-25T12:20:18.811Z,48.56
2022-08-25T12:23:16.242Z,48.81
2022-08-25T12:26:47.947Z,49.47
2022-08-25T12:29:51.015Z,48.77
2022-08-25T12:33:00.937Z,50.05
2022-08-25T12:36:03.009Z,48.90
2022-08-25T12:39:34.306Z,50.12
2022-08-25T12:42:36.438Z,50.78
2022-08-25T12:45:35.233Z,50.46
2022-08-25T12:48:31.956Z,49.12
2022-08-25T12:52:11.436Z,48.70
2022-08-25T12:55:11.427Z,49.31
2022-08-25T12:58:10.884Z,48.88
2022-08-25T13:01:35.216Z,48.50
2022-08-25T13:04:39.249Z,49.31
2022-08-25T13:07:51.752Z,50.15
2022-08-25T13:11:02.154Z,48.20
2022-08-25T13:14:06.887Z,48.54
2022-08-25T13:17:04.322Z,49.21
2022-08-25T13:20:15.378Z,51.55
2022-08-25T13:23:12.578Z,51.10
2022-08-25T13:26:14.585Z,51.39
2022-08-25T13:29:17.738Z,50.26
2022-08-25T13:32:15.014Z,52.60
2022-08-25T13:35:17.756Z,50.42
2022-08-25T13:38:17.899Z,50.40
2022-08-25T13:41:23.458Z,49.31
2022-08-25T13:44:28.623Z,50.42
2022-08-25T13:47:33.109Z,49.10
2022-08-25T13:50:37.096Z,48.23
2022-08-25T13:53:34.074Z,47.35
2022-08-25T13:56:41.000Z,48.48
2022-08-25T13:59:41.005Z,48.40
2022-08-25T14:02:49.827Z,48.66
2022-08-25T14:05:47.009Z,49.43
2022-08-25T14:09:05.198Z,49.00
2022-08-25T14:12:03.735Z,47.94
2022-08-25T14:15:09.630Z,47.90
2022-08-25T14:18:27.377Z,48.39
2022-08-25T14:21:26.710Z,47.93
2022-08-25T14:24:24.338Z,48.76
2022-08-25T14:27:22.482Z,49.89
2022-08-25T14:30:28.999Z,48.72
2022-08-25T14:33:30.383Z,48.22
2022-08-25T14:36:31.688Z,47.72
2022-08-25T14:39:29.395Z,49.75
2022-08-25T14:42:27.148Z,48.78
2022-08-25T14:45:24.107Z,48.72
2022-08-25T14:48:26.915Z,48.77
2022-08-25T14:51:24.017Z,49.86
2022-08-25T14:54:24.295Z,48.41
2022-08-25T14:57:23.959Z,48.12
2022-08-25T15:00:21.245Z,48.51
2022-08-25T15:03:37.830Z,49.14
2022-08-25T15:06:35.541Z,50.31
2022-08-25T15:09:33.597Z,47.96
2022-08-25T15:12:46.783Z,49.70
2022-08-25T15:15:53.037Z,49.27
2022-08-25T15:18:50.413Z,49.47
2022-08-25T15:21:47.219Z,50.08
2022-08-25T15:24:44.290Z,50.13
2022-08-25T15:27:42.312Z,50.58
2022-08-25T15:30:42.047Z,49.48
2022-08-25T15:33:40.769Z,51.00
2022-08-25T15:36:38.596Z,48.28
2022-08-25T15:39:36.512Z,49.40
2022-08-25T15:42:34.751Z,49.30
2022-08-25T15:45:33.118Z,49.08
2022-08-25T15:48:30.181Z,48.95
2022-08-25T15:51:27.825Z,49.14
2022-08-25T15:54:26.753Z,49.39
2022-08-25T15:57:24.542Z,48.56
2022-08-25T16:00:22.741Z,49.28
2022-08-25T16:03:20.342Z,49.25
2022-08-25T16:06:18.618Z,50.30
2022-08-25T16:09:16.083Z,51.13
2022-08-25T16:12:20.251Z,51.25
2022-08-25T16:15:17.445Z,50.93
2022-08-25T16:18:14.485Z,51.58
2022-08-25T16:21:15.868Z,51.22
2022-08-25T16:24:13.263Z,48.98
2022-08-25T16:27:12.114Z,51.10
2022-08-25T16:30:13.763Z,48.84
2022-08-25T16:33:13.471Z,48.35
2022-08-25T16:36:22.359Z,48.28
2022-08-25T16:39:20.087Z,48.17
2022-08-25T16:42:18.324Z,49.36
2022-08-25T16:45:18.378Z,49.02
2022-08-25T16:48:15.024Z,50.92
2022-08-25T16:51:14.806Z,52.08
2022-08-25T16:54:31.072Z,52.70
2022-08-25T16:57:28.782Z,52.35
2022-08-25T17:00:28.585Z,52.34
2022-08-25T17:03:26.147Z,51.80
2022-08-25T17:06:23.879Z,51.85
2022-08-25T17:09:24.125Z,52.08
2022-08-25T17:12:21.108Z,53.04
2022-08-25T17:15:22.403Z,53.93
2022-08-25T17:18:19.187Z,52.49
2022-08-25T17:21:24.711Z,57.75
2022-08-25T17:24:22.444Z,60.02
2022-08-25T17:27:27.183Z,61.04
2022-08-25T17:30:24.307Z,57.89
2022-08-25T17:33:23.826Z,62.16
2022-08-25T17:36:21.329Z,59.96
2022-08-25T17:39:24.637Z,63.44
2022-08-25T17:42:22.484Z,60.73
2022-08-25T17:45:19.275Z,63.72
2022-08-25T17:48:16.694Z,62.63
2022-08-25T17:51:16.035Z,62.58
2022-08-25T17:54:13.608Z,62.28
2022-08-25T17:57:11.167Z,63.40
2022-08-25T18:00:12.507Z,62.44
2022-08-25T18:03:10.510Z,63.39
2022-08-25T18:06:07.608Z,62.40
2022-08-25T18:09:06.380Z,60.14
2022-08-25T18:12:03.670Z,59.15
2022-08-25T18:15:01.492Z,62.48
2022-08-25T18:17:59.691Z,61.65
2022-08-25T18:20:57.168Z,61.91
2022-08-25T18:23:55.937Z,62.58
2022-08-25T18:26:53.188Z,61.64
2022-08-25T18:29:50.700Z,61.16
2022-08-25T18:32:48.364Z,61.57
2022-08-25T18:35:46.261Z,62.02
2022-08-25T18:39:03.966Z,61.34
2022-08-25T18:42:01.844Z,62.53
2022-08-25T18:44:59.589Z,62.65
2022-08-25T18:47:58.296Z,62.18
2022-08-25T18:50:57.486Z,61.81
2022-08-25T18:53:59.158Z,62.39
2022-08-25T18:56:58.257Z,61.59
2022-08-25T18:59:55.224Z,61.91
2022-08-25T19:02:55.392Z,61.83
2022-08-25T19:05:57.290Z,62.34
2022-08-25T19:08:55.200Z,63.39
2022-08-25T19:11:52.730Z,63.60
2022-08-25T19:14:52.307Z,64.40
2022-08-25T19:17:49.016Z,64.00
2022-08-25T19:20:46.476Z,63.95
2022-08-25T19:23:43.265Z,63.68
2022-08-25T19:26:40.367Z,63.75
2022-08-25T19:29:38.505Z,64.30
2022-08-25T19:32:39.055Z,64.53
2022-08-25T19:35:44.006Z,64.94
2022-08-25T19:38:41.232Z,65.38
2022-08-25T19:41:38.314Z,64.97
2022-08-25T19:44:36.081Z,64.33
2022-08-25T19:47:33.354Z,63.94
2022-08-25T19:50:30.608Z,65.00
2022-08-25T19:53:27.298Z,65.12
2022-08-25T19:56:24.376Z,65.16
2022-08-25T19:59:25.741Z,65.13
2022-08-25T20:02:29.751Z,64.71
2022-08-25T20:05:27.736Z,64.74
2022-08-25T20:08:29.650Z,65.39
2022-08-25T20:11:28.244Z,66.01
2022-08-25T20:14:25.660Z,66.03
2022-08-25T20:17:23.971Z,66.43
2022-08-25T20:20:22.897Z,66.04
2022-08-25T20:23:39.159Z,66.82
2022-08-25T20:26:36.575Z,66.52
2022-08-25T20:29:33.281Z,66.36
2022-08-25T20:32:31.999Z,66.57
2022-08-25T20:35:29.426Z,67.23
2022-08-25T20:38:29.816Z,67.01
2022-08-25T20:41:27.458Z,66.93
2022-08-25T20:44:24.723Z,67.72
2022-08-25T20:47:22.737Z,67.70
2022-08-25T20:50:19.715Z,66.98
2022-08-25T20:53:16.616Z,66.50
2022-08-25T20:56:16.393Z,66.58
2022-08-25T20:59:13.398Z,67.06
2022-08-25T21:02:13.985Z,67.36
2022-08-25T21:05:12.513Z,68.63
2022-08-25T21:08:09.979Z,68.86
2022-08-25T21:11:08.916Z,68.94
2022-08-25T21:14:07.043Z,68.09
2022-08-25T21:17:05.143Z,68.17
2022-08-25T21:20:03.757Z,68.21
2022-08-25T21:23:01.703Z,69.11
2022-08-25T21:25:59.340Z,69.48
2022-08-25T21:28:58.077Z,69.72
2022-08-25T21:31:55.908Z,69.83
2022-08-25T21:34:54.400Z,68.82
2022-08-25T21:37:53.233Z,69.15
2022-08-25T21:40:50.723Z,69.65
2022-08-25T21:43:49.555Z,69.49
2022-08-25T21:46:54.143Z,69.24
2022-08-25T21:49:51.722Z,68.95
2022-08-25T21:52:48.579Z,69.31
2022-08-25T21:55:51.614Z,69.85
2022-08-25T21:58:49.128Z,70.85
2022-08-25T22:01:46.458Z,70.94
2022-08-25T22:04:47.055Z,71.29
2022-08-25T22:07:45.578Z,71.29
2022-08-25T22:10:45.828Z,70.95
2022-08-25T22:13:47.484Z,70.92
2022-08-25T22:16:47.829Z,70.56
2022-08-25T22:19:45.830Z,70.64
2022-08-25T22:22:42.422Z,70.56
2022-08-25T22:25:39.487Z,70.45
2022-08-25T22:28:36.452Z,70.71
2022-08-25T22:31:34.640Z,70.39
2022-08-25T22:34:32.539Z,70.47
2022-08-25T22:37:30.463Z,70.36
2022-08-25T22:40:28.216Z,70.38
2022-08-25T22:43:26.878Z,71.41
2022-08-25T22:46:27.834Z,72.74
2022-08-25T22:49:28.568Z,72.96
2022-08-25T22:52:33.693Z,72.81
2022-08-25T22:55:31.735Z,72.55
2022-08-25T22:58:29.611Z,72.01
2022-08-25T23:01:26.676Z,72.52
2022-08-25T23:04:25.231Z,73.63
2022-08-25T23:07:23.998Z,75.04
2022-08-25T23:10:22.807Z,75.33
2022-08-25T23:13:34.504Z,76.36
2022-08-25T23:16:32.238Z,76.92
2022-08-25T23:19:29.655Z,77.86
2022-08-25T23:22:27.552Z,77.92
2022-08-25T23:25:24.813Z,78.76
2022-08-25T23:28:21.933Z,78.91
2022-08-25T23:31:19.914Z,78.47
2022-08-25T23:34:18.625Z,77.14
2022-08-25T23:37:18.787Z,76.81
2022-08-25T23:40:19.182Z,77.16
2022-08-25T23:43:16.560Z,78.06
2022-08-25T23:46:16.031Z,78.54
2022-08-25T23:49:13.477Z,78.74
2022-08-25T23:52:10.667Z,79.58
2022-08-25T23:55:07.987Z,79.82
2022-08-25T23:58:06.060Z,79.90
